sensor_id;sensor_type;location;lat;lon;timestamp;P1;durP1;ratioP1;P2;durP2;ratioP2
78143;SDS011;67394;52.522;13.622;2023-08-06T00:02:51;6.03;;;4.38;;
78143;SDS011;67394;52.522;13.622;2023-08-06T00:05:17;6.70;;;5.35;;
78143;SDS011;67394;52.522;13.622;2023-08-06T00:07:44;6.82;;;4.78;;
78143;SDS011;67394;52.522;13.622;2023-08-06T00:10:11;6.85;;;5.07;;
78143;SDS011;67394;52.522;13.622;2023-08-06T00:12:37;7.30;;;5.03;;
78143;SDS011;67394;52.522;13.622;2023-08-06T00:15:04;7.78;;;5.35;;
78143;SDS011;67394;52.522;13.622;2023-08-06T00:17:31;6.43;;;5.03;;
78143;SDS011;67394;52.522;13.622;2023-08-06T00:19:58;6.93;;;5.32;;
78143;SDS011;67394;52.522;13.622;2023-08-06T00:22:24;10.43;;;4.88;;
78143;SDS011;67394;52.522;13.622;2023-08-06T00:24:51;6.63;;;4.93;;
78143;SDS011;67394;52.522;13.622;2023-08-06T00:27:17;6.60;;;5.00;;
78143;SDS011;67394;52.522;13.622;2023-08-06T00:29:44;6.70;;;5.15;;
78143;SDS011;67394;52.522;13.622;2023-08-06T00:32:10;7.40;;;5.13;;
78143;SDS011;67394;52.522;13.622;2023-08-06T00:34:36;6.80;;;5.05;;
78143;SDS011;67394;52.522;13.622;2023-08-06T00:37:03;8.80;;;4.85;;
78143;SDS011;67394;52.522;13.622;2023-08-06T00:39:29;6.65;;;5.18;;
78143;SDS011;67394;52.522;13.622;2023-08-06T00:41:56;6.03;;;5.10;;
78143;SDS011;67394;52.522;13.622;2023-08-06T00:44:24;7.05;;;5.00;;
78143;SDS011;67394;52.522;13.622;2023-08-06T00:46:51;5.85;;;4.65;;
78143;SDS011;67394;52.522;13.622;2023-08-06T00:49:18;6.25;;;4.82;;
78143;SDS011;67394;52.522;13.622;2023-08-06T00:51:45;5.85;;;4.95;;
78143;SDS011;67394;52.522;13.622;2023-08-06T00:54:11;8.32;;;5.13;;
78143;SDS011;67394;52.522;13.622;2023-08-06T00:56:38;7.00;;;5.18;;
78143;SDS011;67394;52.522;13.622;2023-08-06T00:59:05;6.72;;;5.10;;
78143;SDS011;67394;52.522;13.622;2023-08-06T01:01:32;6.07;;;4.97;;
78143;SDS011;67394;52.522;13.622;2023-08-06T01:03:58;6.55;;;5.30;;
78143;SDS011;67394;52.522;13.622;2023-08-06T01:14:37;7.97;;;5.25;;
78143;SDS011;67394;52.522;13.622;2023-08-06T01:17:30;6.03;;;4.60;;
78143;SDS011;67394;52.522;13.622;2023-08-06T01:19:57;8.30;;;5.03;;
78143;SDS011;67394;52.522;13.622;2023-08-06T01:22:23;6.65;;;5.25;;
78143;SDS011;67394;52.522;13.622;2023-08-06T01:24:50;7.25;;;5.07;;
78143;SDS011;67394;52.522;13.622;2023-08-06T01:27:22;6.60;;;4.68;;
78143;SDS011;67394;52.522;13.622;2023-08-06T01:30:02;8.13;;;5.00;;
78143;SDS011;67394;52.522;13.622;2023-08-06T01:32:34;7.70;;;5.03;;
78143;SDS011;67394;52.522;13.622;2023-08-06T01:35:05;6.72;;;4.57;;
78143;SDS011;67394;52.522;13.622;2023-08-06T01:37:33;6.85;;;5.10;;
78143;SDS011;67394;52.522;13.622;2023-08-06T01:40:00;7.38;;;5.05;;
78143;SDS011;67394;52.522;13.622;2023-08-06T01:42:27;5.00;;;4.07;;
78143;SDS011;67394;52.522;13.622;2023-08-06T01:44:53;6.22;;;4.32;;
78143;SDS011;67394;52.522;13.622;2023-08-06T01:49:46;7.07;;;4.68;;
78143;SDS011;67394;52.522;13.622;2023-08-06T01:52:13;7.53;;;5.05;;
78143;SDS011;67394;52.522;13.622;2023-08-06T01:54:40;5.88;;;4.65;;
78143;SDS011;67394;52.522;13.622;2023-08-06T01:57:07;5.85;;;4.32;;
78143;SDS011;67394;52.522;13.622;2023-08-06T01:59:33;8.23;;;4.93;;
78143;SDS011;67394;52.522;13.622;2023-08-06T02:02:00;6.25;;;4.13;;
78143;SDS011;67394;52.522;13.622;2023-08-06T02:04:27;6.07;;;4.30;;
78143;SDS011;67394;52.522;13.622;2023-08-06T02:06:53;6.28;;;4.90;;
78143;SDS011;67394;52.522;13.622;2023-08-06T02:09:20;5.47;;;4.13;;
78143;SDS011;67394;52.522;13.622;2023-08-06T02:11:47;5.38;;;3.95;;
78143;SDS011;67394;52.522;13.622;2023-08-06T02:14:13;7.13;;;4.50;;
78143;SDS011;67394;52.522;13.622;2023-08-06T02:16:40;6.22;;;4.50;;
78143;SDS011;67394;52.522;13.622;2023-08-06T02:19:08;5.20;;;4.22;;
78143;SDS011;67394;52.522;13.622;2023-08-06T02:21:35;6.70;;;4.63;;
78143;SDS011;67394;52.522;13.622;2023-08-06T02:24:02;6.28;;;4.22;;
78143;SDS011;67394;52.522;13.622;2023-08-06T02:26:29;6.55;;;4.10;;
78143;SDS011;67394;52.522;13.622;2023-08-06T02:28:56;6.88;;;5.13;;
78143;SDS011;67394;52.522;13.622;2023-08-06T02:31:22;5.43;;;3.80;;
78143;SDS011;67394;52.522;13.622;2023-08-06T02:33:49;6.32;;;3.92;;
78143;SDS011;67394;52.522;13.622;2023-08-06T02:36:16;6.35;;;4.32;;
78143;SDS011;67394;52.522;13.622;2023-08-06T02:38:42;5.30;;;3.92;;
78143;SDS011;67394;52.522;13.622;2023-08-06T02:41:09;5.45;;;4.00;;
78143;SDS011;67394;52.522;13.622;2023-08-06T02:43:35;5.22;;;4.05;;
78143;SDS011;67394;52.522;13.622;2023-08-06T02:46:03;4.82;;;3.63;;
78143;SDS011;67394;52.522;13.622;2023-08-06T02:48:30;4.25;;;3.42;;
78143;SDS011;67394;52.522;13.622;2023-08-06T02:50:57;5.85;;;3.85;;
78143;SDS011;67394;52.522;13.622;2023-08-06T02:53:24;5.57;;;3.85;;
78143;SDS011;67394;52.522;13.622;2023-08-06T02:55:51;6.07;;;3.58;;
78143;SDS011;67394;52.522;13.622;2023-08-06T02:58:18;5.55;;;3.45;;
78143;SDS011;67394;52.522;13.622;2023-08-06T03:00:44;8.05;;;4.40;;
78143;SDS011;67394;52.522;13.622;2023-08-06T03:05:38;4.47;;;3.38;;
78143;SDS011;67394;52.522;13.622;2023-08-06T03:08:05;5.20;;;3.90;;
78143;SDS011;67394;52.522;13.622;2023-08-06T03:10:32;4.68;;;3.60;;
78143;SDS011;67394;52.522;13.622;2023-08-06T03:12:59;5.03;;;3.42;;
78143;SDS011;67394;52.522;13.622;2023-08-06T03:15:25;5.30;;;4.03;;
78143;SDS011;67394;52.522;13.622;2023-08-06T03:17:55;6.00;;;3.85;;
78143;SDS011;67394;52.522;13.622;2023-08-06T03:20:23;5.30;;;3.55;;
78143;SDS011;67394;52.522;13.622;2023-08-06T03:22:49;5.43;;;3.58;;
78143;SDS011;67394;52.522;13.622;2023-08-06T03:25:16;5.10;;;3.45;;
78143;SDS011;67394;52.522;13.622;2023-08-06T03:27:42;5.38;;;3.70;;
78143;SDS011;67394;52.522;13.622;2023-08-06T03:30:09;4.38;;;3.28;;
78143;SDS011;67394;52.522;13.622;2023-08-06T03:32:37;5.40;;;3.88;;
78143;SDS011;67394;52.522;13.622;2023-08-06T03:35:04;4.63;;;3.42;;
78143;SDS011;67394;52.522;13.622;2023-08-06T03:37:31;4.85;;;3.60;;
78143;SDS011;67394;52.522;13.622;2023-08-06T03:42:25;4.57;;;3.65;;
78143;SDS011;67394;52.522;13.622;2023-08-06T03:44:52;5.22;;;3.42;;
78143;SDS011;67394;52.522;13.622;2023-08-06T03:47:18;4.95;;;4.07;;
78143;SDS011;67394;52.522;13.622;2023-08-06T03:52:12;4.28;;;3.05;;
78143;SDS011;67394;52.522;13.622;2023-08-06T03:54:39;4.85;;;3.28;;
78143;SDS011;67394;52.522;13.622;2023-08-06T03:57:06;6.20;;;3.45;;
78143;SDS011;67394;52.522;13.622;2023-08-06T03:59:32;4.93;;;3.65;;
78143;SDS011;67394;52.522;13.622;2023-08-06T04:01:59;5.53;;;3.55;;
78143;SDS011;67394;52.522;13.622;2023-08-06T04:04:26;5.25;;;3.55;;
78143;SDS011;67394;52.522;13.622;2023-08-06T04:06:53;5.13;;;3.92;;
78143;SDS011;67394;52.522;13.622;2023-08-06T04:09:19;4.93;;;3.60;;
78143;SDS011;67394;52.522;13.622;2023-08-06T04:11:46;5.13;;;3.47;;
78143;SDS011;67394;52.522;13.622;2023-08-06T04:14:13;5.30;;;3.80;;
78143;SDS011;67394;52.522;13.622;2023-08-06T04:16:40;4.70;;;3.63;;
78143;SDS011;67394;52.522;13.622;2023-08-06T04:21:33;5.40;;;3.60;;
78143;SDS011;67394;52.522;13.622;2023-08-06T04:23:59;5.07;;;3.30;;
78143;SDS011;67394;52.522;13.622;2023-08-06T04:26:26;5.22;;;3.63;;
78143;SDS011;67394;52.522;13.622;2023-08-06T04:28:53;5.38;;;3.33;;
78143;SDS011;67394;52.522;13.622;2023-08-06T04:31:21;5.03;;;3.80;;
78143;SDS011;67394;52.522;13.622;2023-08-06T04:33:48;4.05;;;3.05;;
78143;SDS011;67394;52.522;13.622;2023-08-06T04:36:14;5.13;;;3.70;;
78143;SDS011;67394;52.522;13.622;2023-08-06T04:38:41;7.20;;;4.10;;
78143;SDS011;67394;52.522;13.622;2023-08-06T04:41:08;4.97;;;3.72;;
78143;SDS011;67394;52.522;13.622;2023-08-06T04:43:34;4.72;;;3.65;;
78143;SDS011;67394;52.522;13.622;2023-08-06T04:46:01;6.05;;;3.65;;
78143;SDS011;67394;52.522;13.622;2023-08-06T04:48:28;6.22;;;3.67;;
78143;SDS011;67394;52.522;13.622;2023-08-06T04:50:55;6.10;;;3.72;;
78143;SDS011;67394;52.522;13.622;2023-08-06T04:53:22;7.50;;;3.55;;
78143;SDS011;67394;52.522;13.622;2023-08-06T04:55:48;6.40;;;3.80;;
78143;SDS011;67394;52.522;13.622;2023-08-06T05:00:42;6.45;;;3.42;;
78143;SDS011;67394;52.522;13.622;2023-08-06T05:03:09;5.10;;;3.88;;
78143;SDS011;67394;52.522;13.622;2023-08-06T05:05:35;5.20;;;4.13;;
78143;SDS011;67394;52.522;13.622;2023-08-06T05:10:29;6.70;;;4.00;;
78143;SDS011;67394;52.522;13.622;2023-08-06T05:12:55;5.68;;;4.00;;
78143;SDS011;67394;52.522;13.622;2023-08-06T05:15:22;5.90;;;4.05;;
78143;SDS011;67394;52.522;13.622;2023-08-06T05:17:48;5.88;;;4.00;;
78143;SDS011;67394;52.522;13.622;2023-08-06T05:20:15;6.30;;;4.50;;
78143;SDS011;67394;52.522;13.622;2023-08-06T05:22:43;6.05;;;4.15;;
78143;SDS011;67394;52.522;13.622;2023-08-06T05:25:12;5.57;;;3.83;;
78143;SDS011;67394;52.522;13.622;2023-08-06T05:27:42;5.50;;;3.88;;
78143;SDS011;67394;52.522;13.622;2023-08-06T05:30:09;6.32;;;4.25;;
78143;SDS011;67394;52.522;13.622;2023-08-06T05:32:36;6.55;;;4.20;;
78143;SDS011;67394;52.522;13.622;2023-08-06T05:35:03;5.63;;;3.92;;
78143;SDS011;67394;52.522;13.622;2023-08-06T05:37:30;6.00;;;4.18;;
78143;SDS011;67394;52.522;13.622;2023-08-06T05:39:56;5.43;;;3.97;;
78143;SDS011;67394;52.522;13.622;2023-08-06T05:42:23;5.90;;;4.13;;
78143;SDS011;67394;52.522;13.622;2023-08-06T05:47:16;5.63;;;4.00;;
78143;SDS011;67394;52.522;13.622;2023-08-06T05:49:43;5.43;;;4.00;;
78143;SDS011;67394;52.522;13.622;2023-08-06T05:52:10;5.78;;;4.38;;
78143;SDS011;67394;52.522;13.622;2023-08-06T05:54:36;7.88;;;4.65;;
78143;SDS011;67394;52.522;13.622;2023-08-06T05:57:03;7.82;;;4.68;;
78143;SDS011;67394;52.522;13.622;2023-08-06T05:59:31;8.70;;;3.97;;
78143;SDS011;67394;52.522;13.622;2023-08-06T06:01:57;5.68;;;4.32;;
78143;SDS011;67394;52.522;13.622;2023-08-06T06:04:24;5.43;;;4.32;;
78143;SDS011;67394;52.522;13.622;2023-08-06T06:06:51;5.70;;;4.55;;
78143;SDS011;67394;52.522;13.622;2023-08-06T06:09:18;6.80;;;4.63;;
78143;SDS011;67394;52.522;13.622;2023-08-06T06:11:44;5.38;;;4.43;;
78143;SDS011;67394;52.522;13.622;2023-08-06T06:14:11;6.38;;;4.88;;
78143;SDS011;67394;52.522;13.622;2023-08-06T06:16:37;6.43;;;4.40;;
78143;SDS011;67394;52.522;13.622;2023-08-06T06:19:04;6.65;;;4.40;;
78143;SDS011;67394;52.522;13.622;2023-08-06T06:21:31;7.88;;;4.68;;
78143;SDS011;67394;52.522;13.622;2023-08-06T06:23:57;5.45;;;4.20;;
78143;SDS011;67394;52.522;13.622;2023-08-06T06:26:24;6.00;;;4.43;;
78143;SDS011;67394;52.522;13.622;2023-08-06T06:31:17;5.50;;;3.92;;
78143;SDS011;67394;52.522;13.622;2023-08-06T06:33:44;8.25;;;4.53;;
78143;SDS011;67394;52.522;13.622;2023-08-06T06:36:11;6.03;;;4.40;;
78143;SDS011;67394;52.522;13.622;2023-08-06T06:38:37;6.18;;;4.53;;
78143;SDS011;67394;52.522;13.622;2023-08-06T06:43:31;6.60;;;4.28;;
78143;SDS011;67394;52.522;13.622;2023-08-06T06:46:00;6.30;;;4.95;;
78143;SDS011;67394;52.522;13.622;2023-08-06T06:48:28;7.45;;;5.00;;
78143;SDS011;67394;52.522;13.622;2023-08-06T06:50:59;7.03;;;5.25;;
78143;SDS011;67394;52.522;13.622;2023-08-06T06:53:26;5.07;;;4.55;;
78143;SDS011;67394;52.522;13.622;2023-08-06T06:56:02;7.40;;;5.18;;
78143;SDS011;67394;52.522;13.622;2023-08-06T06:58:32;7.70;;;5.18;;
78143;SDS011;67394;52.522;13.622;2023-08-06T07:00:59;6.60;;;4.82;;
78143;SDS011;67394;52.522;13.622;2023-08-06T07:03:26;6.57;;;5.43;;
78143;SDS011;67394;52.522;13.622;2023-08-06T07:05:56;6.88;;;4.57;;
78143;SDS011;67394;52.522;13.622;2023-08-06T07:08:23;8.32;;;5.78;;
78143;SDS011;67394;52.522;13.622;2023-08-06T07:10:50;8.07;;;5.07;;
78143;SDS011;67394;52.522;13.622;2023-08-06T07:13:35;6.88;;;5.22;;
78143;SDS011;67394;52.522;13.622;2023-08-06T07:16:01;9.63;;;5.50;;
78143;SDS011;67394;52.522;13.622;2023-08-06T07:18:28;7.63;;;5.15;;
78143;SDS011;67394;52.522;13.622;2023-08-06T07:20:55;7.60;;;5.57;;
78143;SDS011;67394;52.522;13.622;2023-08-06T07:23:22;6.85;;;4.90;;
78143;SDS011;67394;52.522;13.622;2023-08-06T07:25:50;7.18;;;4.85;;
78143;SDS011;67394;52.522;13.622;2023-08-06T07:28:17;7.57;;;5.07;;
78143;SDS011;67394;52.522;13.622;2023-08-06T07:30:44;8.38;;;5.40;;
78143;SDS011;67394;52.522;13.622;2023-08-06T07:33:11;9.13;;;4.97;;
78143;SDS011;67394;52.522;13.622;2023-08-06T07:35:38;8.23;;;5.60;;
78143;SDS011;67394;52.522;13.622;2023-08-06T07:38:05;8.00;;;5.38;;
78143;SDS011;67394;52.522;13.622;2023-08-06T07:40:31;7.55;;;5.50;;
78143;SDS011;67394;52.522;13.622;2023-08-06T07:42:58;7.22;;;5.75;;
78143;SDS011;67394;52.522;13.622;2023-08-06T07:45:24;9.95;;;6.03;;
78143;SDS011;67394;52.522;13.622;2023-08-06T07:47:51;8.98;;;5.10;;
78143;SDS011;67394;52.522;13.622;2023-08-06T07:50:17;8.55;;;5.38;;
78143;SDS011;67394;52.522;13.622;2023-08-06T07:52:44;7.22;;;5.30;;
78143;SDS011;67394;52.522;13.622;2023-08-06T07:55:10;7.28;;;5.43;;
78143;SDS011;67394;52.522;13.622;2023-08-06T07:57:37;8.07;;;5.85;;
78143;SDS011;67394;52.522;13.622;2023-08-06T08:00:03;7.28;;;5.47;;
78143;SDS011;67394;52.522;13.622;2023-08-06T08:02:30;6.63;;;5.38;;
78143;SDS011;67394;52.522;13.622;2023-08-06T08:04:57;7.95;;;5.72;;
78143;SDS011;67394;52.522;13.622;2023-08-06T08:07:23;8.23;;;5.78;;
78143;SDS011;67394;52.522;13.622;2023-08-06T08:09:50;8.40;;;5.22;;
78143;SDS011;67394;52.522;13.622;2023-08-06T08:12:16;6.75;;;5.55;;
78143;SDS011;67394;52.522;13.622;2023-08-06T08:14:43;8.57;;;6.00;;
78143;SDS011;67394;52.522;13.622;2023-08-06T08:17:09;9.43;;;6.07;;
78143;SDS011;67394;52.522;13.622;2023-08-06T08:19:36;7.50;;;5.13;;
78143;SDS011;67394;52.522;13.622;2023-08-06T08:22:02;8.60;;;5.85;;
78143;SDS011;67394;52.522;13.622;2023-08-06T08:24:29;7.70;;;5.20;;
78143;SDS011;67394;52.522;13.622;2023-08-06T08:26:55;9.70;;;5.88;;
78143;SDS011;67394;52.522;13.622;2023-08-06T08:31:49;7.60;;;5.88;;
78143;SDS011;67394;52.522;13.622;2023-08-06T08:36:45;9.23;;;5.80;;
78143;SDS011;67394;52.522;13.622;2023-08-06T08:39:11;9.02;;;5.78;;
78143;SDS011;67394;52.522;13.622;2023-08-06T08:41:38;9.52;;;6.30;;
78143;SDS011;67394;52.522;13.622;2023-08-06T08:44:08;8.75;;;5.88;;
78143;SDS011;67394;52.522;13.622;2023-08-06T08:46:36;9.00;;;5.50;;
78143;SDS011;67394;52.522;13.622;2023-08-06T08:49:05;9.25;;;6.03;;
78143;SDS011;67394;52.522;13.622;2023-08-06T08:51:32;8.18;;;5.50;;
78143;SDS011;67394;52.522;13.622;2023-08-06T08:53:59;7.30;;;6.07;;
78143;SDS011;67394;52.522;13.622;2023-08-06T08:56:29;8.02;;;5.90;;
78143;SDS011;67394;52.522;13.622;2023-08-06T08:58:57;8.27;;;5.80;;
78143;SDS011;67394;52.522;13.622;2023-08-06T09:01:23;7.15;;;5.25;;
78143;SDS011;67394;52.522;13.622;2023-08-06T09:03:50;7.53;;;5.50;;
78143;SDS011;67394;52.522;13.622;2023-08-06T09:06:17;9.07;;;5.40;;
78143;SDS011;67394;52.522;13.622;2023-08-06T09:08:51;8.68;;;5.80;;
78143;SDS011;67394;52.522;13.622;2023-08-06T09:11:22;9.73;;;6.28;;
78143;SDS011;67394;52.522;13.622;2023-08-06T09:13:49;8.25;;;6.15;;
78143;SDS011;67394;52.522;13.622;2023-08-06T09:16:16;10.45;;;6.07;;
78143;SDS011;67394;52.522;13.622;2023-08-06T09:18:43;9.77;;;6.68;;
78143;SDS011;67394;52.522;13.622;2023-08-06T09:21:13;7.60;;;5.65;;
78143;SDS011;67394;52.522;13.622;2023-08-06T09:23:41;8.10;;;6.00;;
78143;SDS011;67394;52.522;13.622;2023-08-06T09:26:08;7.88;;;6.40;;
78143;SDS011;67394;52.522;13.622;2023-08-06T09:28:41;7.03;;;5.43;;
78143;SDS011;67394;52.522;13.622;2023-08-06T09:31:08;9.32;;;6.40;;
78143;SDS011;67394;52.522;13.622;2023-08-06T09:33:38;8.95;;;6.20;;
78143;SDS011;67394;52.522;13.622;2023-08-06T09:36:11;8.50;;;6.30;;
78143;SDS011;67394;52.522;13.622;2023-08-06T09:38:39;7.95;;;6.03;;
78143;SDS011;67394;52.522;13.622;2023-08-06T09:41:07;8.65;;;6.05;;
78143;SDS011;67394;52.522;13.622;2023-08-06T09:43:40;6.32;;;4.57;;
78143;SDS011;67394;52.522;13.622;2023-08-06T09:46:11;6.10;;;5.10;;
78143;SDS011;67394;52.522;13.622;2023-08-06T09:48:38;5.55;;;4.60;;
78143;SDS011;67394;52.522;13.622;2023-08-06T09:51:05;5.68;;;4.05;;
78143;SDS011;67394;52.522;13.622;2023-08-06T09:53:34;7.40;;;4.25;;
78143;SDS011;67394;52.522;13.622;2023-08-06T09:56:03;6.45;;;4.47;;
78143;SDS011;67394;52.522;13.622;2023-08-06T09:58:31;6.38;;;4.18;;
78143;SDS011;67394;52.522;13.622;2023-08-06T10:00:59;6.18;;;4.60;;
78143;SDS011;67394;52.522;13.622;2023-08-06T10:03:27;6.97;;;4.82;;
78143;SDS011;67394;52.522;13.622;2023-08-06T10:05:55;6.13;;;4.50;;
78143;SDS011;67394;52.522;13.622;2023-08-06T10:08:22;6.32;;;4.68;;
78143;SDS011;67394;52.522;13.622;2023-08-06T10:10:49;5.82;;;4.50;;
78143;SDS011;67394;52.522;13.622;2023-08-06T10:13:18;7.57;;;4.97;;
78143;SDS011;67394;52.522;13.622;2023-08-06T10:15:47;7.45;;;5.47;;
78143;SDS011;67394;52.522;13.622;2023-08-06T10:18:15;7.80;;;4.78;;
78143;SDS011;67394;52.522;13.622;2023-08-06T10:20:43;6.75;;;5.00;;
78143;SDS011;67394;52.522;13.622;2023-08-06T10:23:09;6.00;;;4.50;;
78143;SDS011;67394;52.522;13.622;2023-08-06T10:25:40;6.93;;;4.90;;
78143;SDS011;67394;52.522;13.622;2023-08-06T10:28:10;6.13;;;4.68;;
78143;SDS011;67394;52.522;13.622;2023-08-06T10:30:41;7.53;;;5.00;;
78143;SDS011;67394;52.522;13.622;2023-08-06T10:33:08;7.75;;;5.47;;
78143;SDS011;67394;52.522;13.622;2023-08-06T10:38:08;7.35;;;5.32;;
78143;SDS011;67394;52.522;13.622;2023-08-06T10:43:34;6.78;;;5.43;;
78143;SDS011;67394;52.522;13.622;2023-08-06T10:46:03;7.50;;;5.20;;
78143;SDS011;67394;52.522;13.622;2023-08-06T10:48:36;6.25;;;4.57;;
78143;SDS011;67394;52.522;13.622;2023-08-06T10:51:12;6.72;;;4.88;;
78143;SDS011;67394;52.522;13.622;2023-08-06T10:53:47;6.97;;;5.05;;
78143;SDS011;67394;52.522;13.622;2023-08-06T10:56:14;8.90;;;5.38;;
78143;SDS011;67394;52.522;13.622;2023-08-06T10:58:42;8.23;;;5.03;;
78143;SDS011;67394;52.522;13.622;2023-08-06T11:01:09;5.65;;;4.70;;
78143;SDS011;67394;52.522;13.622;2023-08-06T11:03:37;5.72;;;4.10;;
78143;SDS011;67394;52.522;13.622;2023-08-06T11:06:06;5.68;;;4.53;;
78143;SDS011;67394;52.522;13.622;2023-08-06T11:08:34;6.57;;;4.03;;
78143;SDS011;67394;52.522;13.622;2023-08-06T11:11:11;6.53;;;4.68;;
78143;SDS011;67394;52.522;13.622;2023-08-06T11:13:39;7.25;;;4.78;;
78143;SDS011;67394;52.522;13.622;2023-08-06T11:16:08;7.18;;;5.15;;
78143;SDS011;67394;52.522;13.622;2023-08-06T11:18:35;7.57;;;4.70;;
78143;SDS011;67394;52.522;13.622;2023-08-06T11:21:02;6.22;;;4.57;;
78143;SDS011;67394;52.522;13.622;2023-08-06T11:23:28;5.85;;;4.25;;
78143;SDS011;67394;52.522;13.622;2023-08-06T11:25:58;6.53;;;4.57;;
78143;SDS011;67394;52.522;13.622;2023-08-06T11:28:25;6.05;;;4.35;;
78143;SDS011;67394;52.522;13.622;2023-08-06T11:30:52;6.47;;;4.18;;
78143;SDS011;67394;52.522;13.622;2023-08-06T11:33:25;5.93;;;5.13;;
78143;SDS011;67394;52.522;13.622;2023-08-06T11:35:52;6.85;;;4.93;;
78143;SDS011;67394;52.522;13.622;2023-08-06T11:38:24;6.85;;;4.60;;
78143;SDS011;67394;52.522;13.622;2023-08-06T11:40:51;6.45;;;5.00;;
78143;SDS011;67394;52.522;13.622;2023-08-06T11:43:20;6.50;;;4.80;;
78143;SDS011;67394;52.522;13.622;2023-08-06T11:45:48;6.28;;;4.65;;
78143;SDS011;67394;52.522;13.622;2023-08-06T11:48:15;6.35;;;4.88;;
78143;SDS011;67394;52.522;13.622;2023-08-06T11:50:41;7.57;;;5.22;;
78143;SDS011;67394;52.522;13.622;2023-08-06T11:53:11;6.78;;;5.10;;
78143;SDS011;67394;52.522;13.622;2023-08-06T11:55:39;7.05;;;4.43;;
78143;SDS011;67394;52.522;13.622;2023-08-06T11:58:06;7.57;;;4.63;;
78143;SDS011;67394;52.522;13.622;2023-08-06T12:00:33;7.90;;;5.35;;
78143;SDS011;67394;52.522;13.622;2023-08-06T12:02:59;6.53;;;5.30;;
78143;SDS011;67394;52.522;13.622;2023-08-06T12:05:29;8.32;;;5.75;;
78143;SDS011;67394;52.522;13.622;2023-08-06T12:07:58;6.55;;;5.20;;
78143;SDS011;67394;52.522;13.622;2023-08-06T12:10:26;7.07;;;4.93;;
78143;SDS011;67394;52.522;13.622;2023-08-06T12:12:55;8.02;;;5.72;;
78143;SDS011;67394;52.522;13.622;2023-08-06T12:17:49;6.80;;;4.82;;
78143;SDS011;67394;52.522;13.622;2023-08-06T12:20:15;8.70;;;5.80;;
78143;SDS011;67394;52.522;13.622;2023-08-06T12:22:42;7.90;;;5.50;;
78143;SDS011;67394;52.522;13.622;2023-08-06T12:25:10;8.45;;;5.82;;
78143;SDS011;67394;52.522;13.622;2023-08-06T12:27:40;7.72;;;5.18;;
78143;SDS011;67394;52.522;13.622;2023-08-06T12:30:12;7.03;;;5.35;;
78143;SDS011;67394;52.522;13.622;2023-08-06T12:35:06;7.05;;;5.53;;
78143;SDS011;67394;52.522;13.622;2023-08-06T12:37:33;8.60;;;5.20;;
78143;SDS011;67394;52.522;13.622;2023-08-06T12:40:01;9.30;;;5.60;;
78143;SDS011;67394;52.522;13.622;2023-08-06T12:42:47;7.75;;;5.57;;
78143;SDS011;67394;52.522;13.622;2023-08-06T12:45:18;6.82;;;5.63;;
78143;SDS011;67394;52.522;13.622;2023-08-06T12:47:45;6.35;;;4.72;;
78143;SDS011;67394;52.522;13.622;2023-08-06T12:50:15;8.07;;;5.80;;
78143;SDS011;67394;52.522;13.622;2023-08-06T12:52:41;7.80;;;5.82;;
78143;SDS011;67394;52.522;13.622;2023-08-06T12:55:08;8.30;;;5.57;;
78143;SDS011;67394;52.522;13.622;2023-08-06T12:57:34;8.00;;;5.53;;
78143;SDS011;67394;52.522;13.622;2023-08-06T13:00:21;7.75;;;5.20;;
78143;SDS011;67394;52.522;13.622;2023-08-06T13:02:47;7.93;;;5.50;;
78143;SDS011;67394;52.522;13.622;2023-08-06T13:05:14;8.68;;;6.70;;
78143;SDS011;67394;52.522;13.622;2023-08-06T13:07:41;9.10;;;5.95;;
78143;SDS011;67394;52.522;13.622;2023-08-06T13:10:07;7.22;;;5.43;;
78143;SDS011;67394;52.522;13.622;2023-08-06T13:12:34;7.07;;;5.22;;
78143;SDS011;67394;52.522;13.622;2023-08-06T13:15:03;8.82;;;6.30;;
78143;SDS011;67394;52.522;13.622;2023-08-06T13:17:30;8.15;;;5.03;;
78143;SDS011;67394;52.522;13.622;2023-08-06T13:19:57;7.45;;;5.35;;
78143;SDS011;67394;52.522;13.622;2023-08-06T13:22:23;6.53;;;4.80;;
78143;SDS011;67394;52.522;13.622;2023-08-06T13:24:50;7.05;;;4.57;;
78143;SDS011;67394;52.522;13.622;2023-08-06T13:27:16;7.13;;;4.40;;
78143;SDS011;67394;52.522;13.622;2023-08-06T13:29:43;6.30;;;4.90;;
78143;SDS011;67394;52.522;13.622;2023-08-06T13:32:09;6.82;;;4.10;;
78143;SDS011;67394;52.522;13.622;2023-08-06T13:34:36;6.90;;;4.13;;
78143;SDS011;67394;52.522;13.622;2023-08-06T13:37:02;7.78;;;5.25;;
78143;SDS011;67394;52.522;13.622;2023-08-06T13:39:29;6.65;;;4.43;;
78143;SDS011;67394;52.522;13.622;2023-08-06T13:41:55;7.88;;;4.20;;
78143;SDS011;67394;52.522;13.622;2023-08-06T13:44:22;5.75;;;4.03;;
78143;SDS011;67394;52.522;13.622;2023-08-06T13:46:48;7.30;;;4.65;;
78143;SDS011;67394;52.522;13.622;2023-08-06T13:49:15;6.47;;;3.90;;
78143;SDS011;67394;52.522;13.622;2023-08-06T13:51:41;6.00;;;4.07;;
78143;SDS011;67394;52.522;13.622;2023-08-06T13:54:07;6.53;;;4.28;;
78143;SDS011;67394;52.522;13.622;2023-08-06T13:56:34;4.80;;;3.15;;
78143;SDS011;67394;52.522;13.622;2023-08-06T13:59:01;5.55;;;3.53;;
78143;SDS011;67394;52.522;13.622;2023-08-06T14:01:27;4.28;;;3.30;;
78143;SDS011;67394;52.522;13.622;2023-08-06T14:04:13;5.38;;;3.40;;
78143;SDS011;67394;52.522;13.622;2023-08-06T14:06:39;5.18;;;3.72;;
78143;SDS011;67394;52.522;13.622;2023-08-06T14:09:06;5.22;;;3.50;;
78143;SDS011;67394;52.522;13.622;2023-08-06T14:11:33;6.25;;;4.13;;
78143;SDS011;67394;52.522;13.622;2023-08-06T14:14:00;5.60;;;3.80;;
78143;SDS011;67394;52.522;13.622;2023-08-06T14:16:29;5.63;;;3.38;;
78143;SDS011;67394;52.522;13.622;2023-08-06T14:18:55;5.60;;;3.40;;
78143;SDS011;67394;52.522;13.622;2023-08-06T14:21:22;4.93;;;3.58;;
78143;SDS011;67394;52.522;13.622;2023-08-06T14:23:48;7.20;;;3.65;;
78143;SDS011;67394;52.522;13.622;2023-08-06T14:26:15;5.32;;;3.53;;
78143;SDS011;67394;52.522;13.622;2023-08-06T14:28:41;6.88;;;3.75;;
78143;SDS011;67394;52.522;13.622;2023-08-06T14:31:08;5.57;;;3.20;;
78143;SDS011;67394;52.522;13.622;2023-08-06T14:33:34;4.82;;;2.85;;
78143;SDS011;67394;52.522;13.622;2023-08-06T14:36:01;3.92;;;2.80;;
78143;SDS011;67394;52.522;13.622;2023-08-06T14:38:27;4.38;;;2.83;;
78143;SDS011;67394;52.522;13.622;2023-08-06T14:40:53;4.18;;;3.22;;
78143;SDS011;67394;52.522;13.622;2023-08-06T14:43:20;5.60;;;3.05;;
78143;SDS011;67394;52.522;13.622;2023-08-06T14:45:46;4.13;;;2.90;;
78143;SDS011;67394;52.522;13.622;2023-08-06T14:48:13;4.78;;;3.30;;
78143;SDS011;67394;52.522;13.622;2023-08-06T14:50:39;4.07;;;2.97;;
78143;SDS011;67394;52.522;13.622;2023-08-06T14:53:06;3.95;;;2.65;;
78143;SDS011;67394;52.522;13.622;2023-08-06T14:55:32;5.32;;;3.17;;
78143;SDS011;67394;52.522;13.622;2023-08-06T14:58:00;5.57;;;3.20;;
78143;SDS011;67394;52.522;13.622;2023-08-06T15:00:27;4.40;;;2.85;;
78143;SDS011;67394;52.522;13.622;2023-08-06T15:02:54;4.20;;;3.17;;
78143;SDS011;67394;52.522;13.622;2023-08-06T15:05:20;7.70;;;3.30;;
78143;SDS011;67394;52.522;13.622;2023-08-06T15:07:47;4.40;;;2.50;;
78143;SDS011;67394;52.522;13.622;2023-08-06T15:10:13;4.68;;;2.63;;
78143;SDS011;67394;52.522;13.622;2023-08-06T15:12:53;4.15;;;2.55;;
78143;SDS011;67394;52.522;13.622;2023-08-06T15:15:20;3.70;;;2.72;;
78143;SDS011;67394;52.522;13.622;2023-08-06T15:17:46;4.57;;;2.85;;
78143;SDS011;67394;52.522;13.622;2023-08-06T15:20:13;3.58;;;2.22;;
78143;SDS011;67394;52.522;13.622;2023-08-06T15:22:40;3.95;;;2.78;;
78143;SDS011;67394;52.522;13.622;2023-08-06T15:25:06;5.43;;;2.70;;